createdAt,value
2019-03-29T00:04:00.970Z,101978.39
2019-03-29T00:09:08.908Z,101978.05
2019-03-29T00:14:15.844Z,101987.64
2019-03-29T00:19:21.585Z,101987.05
2019-03-29T00:24:27.153Z,101990.23
2019-03-29T00:29:33.918Z,101992.06
2019-03-29T00:34:39.519Z,101989.20
2019-03-29T00:39:45.145Z,101987.88
2019-03-29T00:44:50.761Z,101984.69
2019-03-29T00:49:56.845Z,101977.76
2019-03-29T00:55:02.363Z,101980.12
2019-03-29T01:00:08.171Z,101983.66
2019-03-29T01:05:13.826Z,101984.20
2019-03-29T01:10:19.495Z,101980.23
2019-03-29T01:15:25.260Z,101976.83
2019-03-29T01:20:30.809Z,101974.17
2019-03-29T01:25:37.549Z,101970.67
2019-03-29T01:30:43.291Z,101974.75
2019-03-29T01:35:48.900Z,101972.63
2019-03-29T01:40:54.619Z,101969.44
2019-03-29T01:46:00.233Z,101968.65
2019-03-29T01:51:05.881Z,101966.18
2019-03-29T01:56:11.548Z,101952.85
2019-03-29T02:01:17.205Z,101948.58
2019-03-29T02:06:22.747Z,101948.05
2019-03-29T02:11:28.249Z,101945.39
2019-03-29T02:16:34.234Z,101940.85
2019-03-29T02:21:40.297Z,101938.14
2019-03-29T02:26:45.803Z,101936.23
2019-03-29T02:31:51.701Z,101934.40
2019-03-29T02:36:57.462Z,101934.61
2019-03-29T02:42:02.935Z,101930.42
2019-03-29T02:47:08.448Z,101927.41
2019-03-29T02:52:14.307Z,101923.38
2019-03-29T02:57:20.112Z,101919.88
2019-03-29T03:02:26.511Z,101915.89
2019-03-29T03:07:32.380Z,101914.04
2019-03-29T03:12:38.482Z,101910.11
2019-03-29T03:17:43.945Z,101912.23
2019-03-29T03:22:49.915Z,101911.44
2019-03-29T03:27:55.647Z,101906.87
2019-03-29T03:33:01.266Z,101909.20
2019-03-29T03:38:06.915Z,101907.05
2019-03-29T03:43:12.554Z,101900.12
2019-03-29T03:48:18.744Z,101895.41
2019-03-29T03:53:24.485Z,101901.50
2019-03-29T03:58:30.832Z,101900.52
2019-03-29T04:03:39.361Z,101894.13
2019-03-29T04:08:45.282Z,101899.44
2019-03-29T04:13:51.266Z,101896.55
2019-03-29T04:18:57.330Z,101902.62
2019-03-29T04:24:02.933Z,101892.01
2019-03-29T04:29:08.930Z,101896.73
2019-03-29T04:34:14.482Z,101893.84
2019-03-29T04:39:20.095Z,101890.68
2019-03-29T04:44:25.637Z,101902.62
2019-03-29T04:49:31.278Z,101903.18
2019-03-29T04:54:37.309Z,101905.78
2019-03-29T04:59:42.871Z,101901.50
2019-03-29T05:04:48.377Z,101901.56
2019-03-29T05:09:54.293Z,101907.41
2019-03-29T05:14:59.871Z,101907.34
2019-03-29T05:20:05.897Z,101908.73
2019-03-29T05:25:11.519Z,101916.45
2019-03-29T05:30:17.287Z,101915.18
2019-03-29T05:35:23.498Z,101921.31
2019-03-29T05:40:34.707Z,101917.33
2019-03-29T05:45:36.289Z,101920.83
2019-03-29T05:50:41.775Z,101924.52
2019-03-29T05:55:48.449Z,101920.54
2019-03-29T06:00:55.108Z,101919.98
2019-03-29T06:06:00.817Z,101927.95
2019-03-29T06:11:06.674Z,101928.20
2019-03-29T06:16:12.897Z,101919.50
2019-03-29T06:21:18.822Z,101922.22
2019-03-29T06:26:25.129Z,101922.72
2019-03-29T06:31:31.833Z,101922.77
2019-03-29T06:36:37.495Z,101919.91
2019-03-29T06:41:43.227Z,101922.02
2019-03-29T06:46:49.223Z,101917.86
2019-03-29T06:51:54.896Z,101915.02
2019-03-29T06:57:00.991Z,101915.36
2019-03-29T07:02:06.656Z,101918.02
2019-03-29T07:07:12.293Z,101914.03
2019-03-29T07:12:18.053Z,101913.84
2019-03-29T07:17:26.855Z,101912.80
2019-03-29T07:22:34.779Z,101917.37
2019-03-29T07:27:46.765Z,101918.50
2019-03-29T07:32:53.565Z,101919.54
2019-03-29T07:37:59.269Z,101918.50
2019-03-29T07:43:30.225Z,101920.67
2019-03-29T07:48:40.402Z,101912.20
2019-03-29T07:53:52.531Z,101917.38
2019-03-29T07:59:08.380Z,101919.26
2019-03-29T08:04:14.055Z,101918.61
2019-03-29T08:09:22.735Z,101920.33
2019-03-29T08:14:27.501Z,101917.03
2019-03-29T08:19:33.163Z,101920.41
2019-03-29T08:24:39.307Z,101922.48
2019-03-29T08:29:45.350Z,101920.50
2019-03-29T08:34:50.969Z,101910.16
2019-03-29T08:39:56.750Z,101910.25
2019-03-29T08:45:02.551Z,101918.86
2019-03-29T08:50:12.082Z,101920.56
2019-03-29T08:55:18.002Z,101922.31
2019-03-29T09:00:33.459Z,101924.81
2019-03-29T09:05:40.209Z,101920.12
2019-03-29T09:11:11.699Z,101916.75
2019-03-29T09:16:17.540Z,101916.55
2019-03-29T09:21:23.659Z,101909.25
2019-03-29T09:26:31.698Z,101905.38
2019-03-29T09:31:37.346Z,101902.83
2019-03-29T09:36:47.365Z,101900.71
2019-03-29T09:42:05.328Z,101904.16
2019-03-29T09:47:16.209Z,101903.91
2019-03-29T09:52:24.899Z,101899.70
2019-03-29T09:57:37.335Z,101901.64
2019-03-29T10:02:41.692Z,101902.23
2019-03-29T10:07:50.675Z,101896.14
2019-03-29T10:13:21.021Z,101893.09
2019-03-29T10:18:27.913Z,101896.36
2019-03-29T10:23:33.857Z,101892.91
2019-03-29T10:28:39.585Z,101891.17
2019-03-29T10:33:49.069Z,101884.16
2019-03-29T10:38:57.234Z,101881.11
2019-03-29T10:44:04.232Z,101868.49
2019-03-29T10:49:11.223Z,101868.38
2019-03-29T10:54:17.509Z,101863.42
2019-03-29T10:59:27.577Z,101852.33
2019-03-29T11:04:32.157Z,101846.86
2019-03-29T11:09:40.182Z,101841.91
2019-03-29T11:15:16.131Z,101836.02
2019-03-29T11:20:22.212Z,101829.35
2019-03-29T11:25:29.699Z,101822.51
2019-03-29T11:30:42.111Z,101813.49
2019-03-29T11:35:43.980Z,101811.41
2019-03-29T11:40:55.303Z,101807.16
2019-03-29T11:46:01.896Z,101795.77
2019-03-29T11:51:18.673Z,101795.75
2019-03-29T11:56:47.520Z,101789.64
2019-03-29T12:02:31.397Z,101781.72
2019-03-29T12:07:34.579Z,101776.77
2019-03-29T12:12:40.357Z,101772.08
2019-03-29T12:17:49.078Z,101755.18
2019-03-29T12:22:56.520Z,101754.15
2019-03-29T12:28:02.637Z,101741.45
2019-03-29T12:33:08.450Z,101739.42
2019-03-29T12:38:17.750Z,101736.48
2019-03-29T12:43:26.480Z,101726.95
2019-03-29T12:48:32.615Z,101719.82
2019-03-29T12:54:02.183Z,101714.06
2019-03-29T12:59:05.504Z,101698.03
2019-03-29T13:04:10.669Z,101688.53
2019-03-29T13:09:17.959Z,101679.00
2019-03-29T13:14:23.939Z,101673.59
2019-03-29T13:19:28.179Z,101667.76
2019-03-29T13:24:32.783Z,101658.20
2019-03-29T13:29:38.790Z,101645.05
2019-03-29T13:34:46.161Z,101641.78
2019-03-29T13:40:06.021Z,101637.58
2019-03-29T13:45:11.016Z,101634.45
2019-03-29T13:50:30.159Z,101631.13
2019-03-29T13:55:34.900Z,101621.14
2019-03-29T14:00:39.657Z,101614.05
2019-03-29T14:05:44.336Z,101601.27
2019-03-29T14:10:48.978Z,101593.17
2019-03-29T14:15:54.899Z,101589.19
2019-03-29T14:21:00.880Z,101585.81
2019-03-29T14:26:11.550Z,101578.87
2019-03-29T14:31:21.047Z,101566.41
2019-03-29T14:36:29.855Z,101561.39
2019-03-29T14:41:39.073Z,101549.91
2019-03-29T14:46:59.494Z,101545.70
2019-03-29T14:52:06.956Z,101538.98
2019-03-29T14:57:21.875Z,101531.30
2019-03-29T15:02:27.514Z,101527.34
2019-03-29T15:07:33.824Z,101529.08
2019-03-29T15:12:40.690Z,101525.27
2019-03-29T15:17:46.571Z,101514.58
2019-03-29T15:22:59.221Z,101510.00
2019-03-29T15:28:19.967Z,101497.75
2019-03-29T15:34:07.362Z,101492.41
2019-03-29T15:39:45.444Z,101489.83
2019-03-29T15:44:52.766Z,101483.80
2019-03-29T15:49:59.898Z,101477.50
2019-03-29T15:55:12.645Z,101479.14
2019-03-29T16:00:25.774Z,101472.50
2019-03-29T16:05:43.122Z,101471.00
2019-03-29T16:10:54.912Z,101469.16
2019-03-29T16:16:02.120Z,101461.40
2019-03-29T16:21:16.701Z,101453.67
2019-03-29T16:26:26.429Z,101455.59
2019-03-29T16:31:35.977Z,101448.11
2019-03-29T16:36:42.708Z,101440.39
2019-03-29T16:41:59.627Z,101439.34
2019-03-29T16:47:07.158Z,101434.23
2019-03-29T16:52:12.865Z,101423.78
2019-03-29T16:57:39.159Z,101417.99
2019-03-29T17:02:44.901Z,101410.02
2019-03-29T17:07:50.945Z,101405.76
2019-03-29T17:12:56.644Z,101404.45
2019-03-29T17:18:29.460Z,101403.45
2019-03-29T17:23:45.652Z,101397.06
2019-03-29T17:28:53.314Z,101393.87
2019-03-29T17:34:00.270Z,101390.92
2019-03-29T17:39:08.270Z,101385.59
2019-03-29T17:44:14.184Z,101375.20
2019-03-29T17:49:25.750Z,101375.22
2019-03-29T17:54:46.752Z,101364.83
2019-03-29T17:59:59.727Z,101369.14
2019-03-29T18:05:05.889Z,101369.66
2019-03-29T18:10:11.596Z,101378.23
2019-03-29T18:15:31.842Z,101375.58
2019-03-29T18:20:38.066Z,101365.20
2019-03-29T18:25:44.573Z,101373.22
2019-03-29T18:30:50.449Z,101369.78
2019-03-29T18:36:00.888Z,101380.98
2019-03-29T18:41:11.167Z,101375.66
2019-03-29T18:46:21.779Z,101371.94
2019-03-29T18:51:31.253Z,101374.33
2019-03-29T18:56:40.753Z,101363.16
2019-03-29T19:01:52.748Z,101361.28
2019-03-29T19:07:00.173Z,101364.22
2019-03-29T19:12:08.556Z,101363.95
2019-03-29T19:17:36.132Z,101361.83
2019-03-29T19:23:00.065Z,101367.95
2019-03-29T19:34:08.286Z,101363.42
2019-03-29T19:39:25.704Z,101363.38
2019-03-29T19:44:37.226Z,101366.31
2019-03-29T19:49:55.443Z,101355.09
2019-03-29T19:55:03.728Z,101354.58
2019-03-29T20:00:11.997Z,101358.28
2019-03-29T20:05:28.084Z,101352.13
2019-03-29T20:16:25.243Z,101346.25
2019-03-29T20:21:32.464Z,101346.23
2019-03-29T20:26:38.384Z,101339.02
2019-03-29T20:31:44.734Z,101349.92
2019-03-29T20:36:50.464Z,101348.05
2019-03-29T20:41:56.058Z,101346.47
2019-03-29T20:47:01.637Z,101334.76
2019-03-29T20:52:07.325Z,101340.35
2019-03-29T20:57:13.175Z,101331.59
2019-03-29T21:02:18.914Z,101329.19
2019-03-29T21:07:24.484Z,101324.36
2019-03-29T21:12:30.172Z,101320.89
2019-03-29T21:17:36.512Z,101326.49
2019-03-29T21:22:42.789Z,101318.22
2019-03-29T21:27:48.597Z,101321.41
2019-03-29T21:32:54.532Z,101321.91
2019-03-29T21:38:00.180Z,101321.11
2019-03-29T21:43:05.994Z,101310.72
2019-03-29T21:48:27.926Z,101310.71
2019-03-29T21:53:19.312Z,101301.13
2019-03-29T21:58:24.902Z,101300.05
2019-03-29T22:03:31.008Z,101297.38
2019-03-29T22:08:36.577Z,101300.30
2019-03-29T22:13:42.190Z,101297.63
2019-03-29T22:18:52.866Z,101298.94
2019-03-29T22:23:58.786Z,101294.93
2019-03-29T22:29:04.399Z,101293.03
2019-03-29T22:34:10.092Z,101289.24
2019-03-29T22:39:15.641Z,101278.81
2019-03-29T22:44:21.768Z,101270.22
2019-03-29T22:49:27.424Z,101271.23
2019-03-29T22:54:33.038Z,101268.28
2019-03-29T22:59:40.014Z,101258.05
2019-03-29T23:04:45.988Z,101259.28
2019-03-29T23:09:51.654Z,101258.70
2019-03-29T23:14:57.222Z,101253.61
2019-03-29T23:20:02.814Z,101253.63
2019-03-29T23:25:08.834Z,101241.36
2019-03-29T23:30:15.762Z,101242.14
2019-03-29T23:35:27.686Z,101245.61
2019-03-29T23:40:33.220Z,101249.53
2019-03-29T23:45:38.887Z,101245.80
2019-03-29T23:50:44.471Z,101232.98
2019-03-29T23:55:50.272Z,101233.77
